createdAt,value
2023-04-10T00:02:05.074Z,101094.85
2023-04-10T00:05:28.363Z,101092.67
2023-04-10T00:12:30.405Z,101086.98
2023-04-10T00:23:36.297Z,101091.83
2023-04-10T00:27:36.941Z,101091.70
2023-04-10T00:44:38.205Z,101090.04
2023-04-10T00:52:03.179Z,101091.73
2023-04-10T00:55:34.136Z,101090.65
2023-04-10T00:59:05.143Z,101091.98
2023-04-10T01:02:36.219Z,101092.89
2023-04-10T01:06:09.599Z,101097.66
2023-04-10T01:09:40.943Z,101097.69
2023-04-10T01:13:16.964Z,101095.32
2023-04-10T01:16:50.128Z,101095.27
2023-04-10T01:20:14.619Z,101085.78
2023-04-10T01:23:53.996Z,101082.23
2023-04-10T01:27:22.235Z,101088.99
2023-04-10T01:30:52.291Z,101084.91
2023-04-10T01:34:22.031Z,101086.44
2023-04-10T01:37:58.252Z,101088.13
2023-04-10T01:41:24.773Z,101087.63
2023-04-10T01:44:48.878Z,101088.39
2023-04-10T01:48:18.882Z,101087.48
2023-04-10T01:52:00.744Z,101092.20
2023-04-10T01:55:32.120Z,101097.34
2023-04-10T01:59:12.284Z,101089.36
2023-04-10T02:02:44.494Z,101090.61
2023-04-10T02:06:16.808Z,101094.52
2023-04-10T02:09:47.169Z,101093.21
2023-04-10T02:13:21.193Z,101094.40
2023-04-10T02:16:53.331Z,101097.52
2023-04-10T02:20:09.982Z,101097.11
2023-04-10T02:23:37.185Z,101092.70
2023-04-10T02:40:59.177Z,101096.85
2023-04-10T02:47:55.592Z,101098.02
2023-04-10T02:51:27.308Z,101101.13
2023-04-10T02:54:52.878Z,101101.61
2023-04-10T02:58:29.465Z,101104.33
2023-04-10T03:02:03.099Z,101108.18
2023-04-10T03:05:59.706Z,101110.95
2023-04-10T03:09:28.936Z,101113.21
2023-04-10T03:12:59.381Z,101108.58
2023-04-10T03:16:37.246Z,101108.98
2023-04-10T03:30:26.640Z,101113.86
2023-04-10T03:37:12.485Z,101110.73
2023-04-10T03:40:41.211Z,101112.64
2023-04-10T03:44:04.226Z,101116.52
2023-04-10T03:47:57.111Z,101121.35
2023-04-10T03:55:21.789Z,101125.16
2023-04-10T04:56:28.515Z,101152.48
2023-04-10T04:59:52.409Z,101151.14
2023-04-10T05:03:29.390Z,101156.38
2023-04-10T05:07:39.957Z,101155.44
2023-04-10T05:11:16.198Z,101159.11
2023-04-10T05:14:47.306Z,101156.02
2023-04-10T05:18:07.791Z,101159.73
2023-04-10T05:21:29.666Z,101160.52
2023-04-10T05:25:11.015Z,101167.67
2023-04-10T05:28:45.981Z,101176.86
2023-04-10T05:36:43.825Z,101182.02
2023-04-10T05:40:49.872Z,101181.89
2023-04-10T05:44:37.017Z,101178.61
2023-04-10T05:48:29.005Z,101186.23
2023-04-10T05:52:24.713Z,101188.71
2023-04-10T05:56:03.127Z,101186.77
2023-04-10T06:03:25.047Z,101191.58
2023-04-10T06:11:15.020Z,101192.48
2023-04-10T06:15:06.933Z,101187.54
2023-04-10T06:19:00.030Z,101178.31
2023-04-10T06:26:31.645Z,101177.07
2023-04-10T06:30:23.425Z,101175.58
2023-04-10T06:33:50.887Z,101180.52
2023-04-10T06:37:20.557Z,101182.23
2023-04-10T06:40:32.084Z,101180.92
2023-04-10T06:43:32.420Z,101182.73
2023-04-10T06:46:44.916Z,101187.61
2023-04-10T06:49:43.523Z,101182.44
2023-04-10T06:53:01.107Z,101189.45
2023-04-10T06:56:38.029Z,101189.90
2023-04-10T06:59:51.489Z,101194.30
2023-04-10T07:02:22.209Z,101187.71
2023-04-10T07:05:17.909Z,101188.54
2023-04-10T07:08:04.837Z,101179.65
2023-04-10T07:10:33.829Z,101174.58
2023-04-10T07:13:05.797Z,101173.61
2023-04-10T07:15:35.370Z,101169.95
2023-04-10T07:29:01.312Z,101159.95
2023-04-10T07:39:56.366Z,101168.24
2023-04-10T07:43:31.858Z,101167.95
2023-04-10T07:46:56.813Z,101169.34
2023-04-10T07:50:13.156Z,101171.16
2023-04-10T07:53:25.904Z,101173.19
2023-04-10T07:56:03.690Z,101169.79
2023-04-10T07:58:46.388Z,101165.59
2023-04-10T08:01:17.063Z,101163.65
2023-04-10T08:03:48.004Z,101163.52
2023-04-10T08:06:18.677Z,101154.05
2023-04-10T08:09:04.447Z,101152.59
2023-04-10T08:12:14.216Z,101151.88
2023-04-10T08:15:25.984Z,101152.12
2023-04-10T08:18:07.151Z,101144.38
2023-04-10T08:21:19.966Z,101145.48
2023-04-10T08:24:33.205Z,101145.15
2023-04-10T08:27:42.802Z,101143.38
2023-04-10T08:30:28.324Z,101140.93
2023-04-10T08:33:11.374Z,101140.88
2023-04-10T08:35:47.676Z,101147.88
2023-04-10T08:38:32.720Z,101138.48
2023-04-10T08:41:33.560Z,101140.17
2023-04-10T08:44:20.996Z,101138.46
2023-04-10T08:47:40.053Z,101133.36
2023-04-10T08:51:19.510Z,101137.69
2023-04-10T08:55:15.845Z,101135.48
2023-04-10T09:02:43.983Z,101127.52
2023-04-10T09:06:11.719Z,101123.61
2023-04-10T09:12:57.337Z,101116.78
2023-04-10T09:16:43.533Z,101117.60
2023-04-10T09:23:49.829Z,101112.48
2023-04-10T09:27:05.068Z,101103.25
2023-04-10T09:41:02.879Z,101087.36
2023-04-10T09:44:34.884Z,101078.86
2023-04-10T09:47:18.670Z,101075.86
2023-04-10T09:50:51.723Z,101074.10
2023-04-10T09:54:32.540Z,101068.13
2023-04-10T09:57:21.677Z,101071.44
2023-04-10T10:00:04.263Z,101069.05
2023-04-10T10:03:02.260Z,101060.70
2023-04-10T10:10:27.701Z,101058.27
2023-04-10T10:19:52.704Z,101041.59
2023-04-10T11:37:01.542Z,100982.45
2023-04-10T11:39:33.141Z,100980.13
2023-04-10T11:42:02.901Z,100979.84
2023-04-10T11:44:35.821Z,100976.81
2023-04-10T11:47:05.838Z,100978.05
2023-04-10T11:49:37.933Z,100975.70
2023-04-10T11:52:08.904Z,100972.73
2023-04-10T11:54:48.921Z,100972.92
2023-04-10T11:57:19.498Z,100968.41
2023-04-10T11:59:52.154Z,100971.41
2023-04-10T12:02:22.574Z,100966.06
2023-04-10T12:04:58.413Z,100962.59
2023-04-10T12:07:31.868Z,100967.80
2023-04-10T12:10:02.481Z,100965.90
2023-04-10T12:12:38.180Z,100966.21
2023-04-10T12:15:30.895Z,100961.88
2023-04-10T12:18:03.628Z,100961.94
2023-04-10T12:20:34.627Z,100955.73
2023-04-10T12:23:05.109Z,100953.27
2023-04-10T12:25:36.995Z,100950.81
2023-04-10T12:28:06.408Z,100958.68
2023-04-10T12:30:37.839Z,100950.85
2023-04-10T12:33:08.139Z,100949.13
2023-04-10T12:35:45.283Z,100953.50
2023-04-10T12:38:14.084Z,100949.34
2023-04-10T12:40:59.701Z,100946.91
2023-04-10T12:43:34.170Z,100939.35
2023-04-10T12:46:03.993Z,100939.67
2023-04-10T12:48:34.146Z,100942.04
2023-04-10T12:51:04.202Z,100938.58
2023-04-10T12:53:43.714Z,100935.13
2023-04-10T12:56:13.651Z,100933.98
2023-04-10T12:58:44.097Z,100926.64
2023-04-10T13:01:15.076Z,100924.16
2023-04-10T13:03:44.034Z,100925.77
2023-04-10T13:06:14.862Z,100922.97
2023-04-10T13:08:44.182Z,100919.99
2023-04-10T13:11:13.392Z,100921.02
2023-04-10T13:13:43.287Z,100914.86
2023-04-10T13:16:14.436Z,100908.36
2023-04-10T13:18:44.891Z,100904.95
2023-04-10T13:21:18.863Z,100906.13
2023-04-10T13:23:48.792Z,100901.86
2023-04-10T13:26:17.672Z,100898.23
2023-04-10T13:28:46.969Z,100895.95
2023-04-10T13:31:16.980Z,100893.56
2023-04-10T13:33:48.319Z,100893.02
2023-04-10T13:36:17.572Z,100885.45
2023-04-10T13:38:46.928Z,100879.69
2023-04-10T13:41:16.105Z,100877.09
2023-04-10T13:43:47.509Z,100880.05
2023-04-10T13:46:17.798Z,100875.70
2023-04-10T13:48:46.645Z,100879.38
2023-04-10T13:51:17.430Z,100871.95
2023-04-10T13:53:47.173Z,100869.86
2023-04-10T13:56:18.007Z,100872.61
2023-04-10T13:58:48.830Z,100867.62
2023-04-10T14:01:20.439Z,100868.14
2023-04-10T14:03:50.606Z,100865.58
2023-04-10T14:06:21.619Z,100857.83
2023-04-10T14:08:55.317Z,100856.92
2023-04-10T14:11:27.660Z,100856.86
2023-04-10T14:13:56.840Z,100852.56
2023-04-10T14:16:29.365Z,100852.08
2023-04-10T14:18:59.899Z,100850.92
2023-04-10T14:21:30.939Z,100848.88
2023-04-10T14:24:02.948Z,100849.20
2023-04-10T14:26:33.439Z,100842.66
2023-04-10T14:29:04.698Z,100843.42
2023-04-10T14:31:35.787Z,100836.81
2023-04-10T14:34:11.086Z,100832.52
2023-04-10T14:36:43.519Z,100823.38
2023-04-10T14:39:14.032Z,100830.15
2023-04-10T14:41:44.842Z,100824.08
2023-04-10T14:44:15.380Z,100821.02
2023-04-10T14:46:44.684Z,100819.42
2023-04-10T14:49:16.467Z,100815.70
2023-04-10T14:52:12.282Z,100818.94
2023-04-10T14:54:42.202Z,100817.42
2023-04-10T14:57:14.050Z,100816.58
2023-04-10T14:59:43.107Z,100811.35
2023-04-10T15:02:12.517Z,100808.43
2023-04-10T15:04:43.022Z,100808.61
2023-04-10T15:07:16.426Z,100807.46
2023-04-10T15:09:47.589Z,100806.58
2023-04-10T15:12:24.072Z,100800.36
2023-04-10T15:14:53.148Z,100795.65
2023-04-10T15:17:23.382Z,100793.15
2023-04-10T15:19:52.923Z,100790.32
2023-04-10T15:22:22.145Z,100785.35
2023-04-10T15:24:54.048Z,100785.80
2023-04-10T15:27:26.479Z,100783.26
2023-04-10T15:29:58.389Z,100774.64
2023-04-10T15:32:28.649Z,100776.67
2023-04-10T15:34:59.138Z,100773.91
2023-04-10T15:37:30.313Z,100773.02
2023-04-10T15:39:59.192Z,100769.11
2023-04-10T15:42:28.523Z,100763.89
2023-04-10T15:44:59.711Z,100765.21
2023-04-10T15:47:29.604Z,100760.19
2023-04-10T15:50:02.421Z,100757.19
2023-04-10T15:52:55.444Z,100755.67
2023-04-10T15:55:34.372Z,100756.77
2023-04-10T15:58:28.092Z,100750.79
2023-04-10T16:00:58.168Z,100744.92
2023-04-10T16:03:33.601Z,100746.30
2023-04-10T16:06:08.270Z,100745.41
2023-04-10T16:08:41.812Z,100746.15
2023-04-10T16:11:16.195Z,100742.48
2023-04-10T16:52:33.102Z,100687.17
2023-04-10T16:59:04.044Z,100681.53
2023-04-10T17:01:35.712Z,100675.83
2023-04-10T17:04:05.634Z,100676.19
2023-04-10T17:06:38.673Z,100680.71
2023-04-10T17:09:09.673Z,100676.33
2023-04-10T17:11:41.938Z,100671.41
2023-04-10T17:14:13.615Z,100672.65
2023-04-10T17:16:46.112Z,100670.91
2023-04-10T17:19:18.328Z,100677.22
2023-04-10T17:22:27.386Z,100675.58
2023-04-10T17:34:12.628Z,100667.23
2023-04-10T17:37:23.339Z,100681.44
2023-04-10T17:40:33.328Z,100676.39
2023-04-10T17:43:08.687Z,100673.89
2023-04-10T17:46:22.577Z,100675.70
2023-04-10T17:50:15.741Z,100677.46
2023-04-10T17:57:09.903Z,100672.55
2023-04-10T18:01:18.676Z,100674.83
2023-04-10T18:08:18.346Z,100673.52
2023-04-10T18:11:56.819Z,100675.54
2023-04-10T18:18:49.092Z,100671.52
2023-04-10T18:22:16.174Z,100672.55
2023-04-10T18:26:05.992Z,100675.65
2023-04-10T18:29:48.833Z,100676.30
2023-04-10T18:49:23.862Z,100671.45
2023-04-10T19:02:31.219Z,100661.17
2023-04-10T19:06:46.046Z,100657.33
2023-04-10T19:10:45.186Z,100656.27
2023-04-10T19:14:38.669Z,100654.37
2023-04-10T19:17:47.860Z,100651.96
2023-04-10T19:25:05.777Z,100654.06
2023-04-10T19:28:54.485Z,100654.11
2023-04-10T19:33:07.639Z,100653.76
2023-04-10T19:36:33.260Z,100650.65
2023-04-10T19:48:17.217Z,100641.77
2023-04-10T19:52:13.878Z,100646.34
2023-04-10T19:55:46.491Z,100639.63
2023-04-10T19:59:41.008Z,100635.45
2023-04-10T20:10:37.800Z,100617.80
2023-04-10T20:14:19.028Z,100613.49
2023-04-10T20:27:49.225Z,100604.77
2023-04-10T20:37:22.104Z,100596.73
2023-04-10T20:39:58.915Z,100596.17
2023-04-10T20:42:33.554Z,100591.36
2023-04-10T20:45:56.642Z,100590.06
2023-04-10T20:48:38.979Z,100583.64
2023-04-10T21:04:46.028Z,100580.77
2023-04-10T21:07:50.594Z,100572.47
2023-04-10T21:11:21.650Z,100568.15
2023-04-10T21:14:45.369Z,100563.49
2023-04-10T21:17:58.436Z,100555.10
2023-04-10T21:21:24.554Z,100555.17
2023-04-10T21:24:27.001Z,100554.41
2023-04-10T21:27:46.696Z,100551.34
2023-04-10T21:31:14.621Z,100546.91
2023-04-10T21:34:27.388Z,100547.52
2023-04-10T21:45:30.935Z,100536.88
2023-04-10T21:49:06.079Z,100529.66
2023-04-10T21:56:21.826Z,100524.40
2023-04-10T21:59:26.838Z,100523.89
2023-04-10T22:02:42.843Z,100526.52
2023-04-10T22:06:05.536Z,100525.56
2023-04-10T22:09:16.187Z,100527.58
2023-04-10T22:12:31.201Z,100519.05
2023-04-10T22:15:53.373Z,100518.67
2023-04-10T22:19:22.974Z,100514.89
2023-04-10T22:22:33.938Z,100512.83
2023-04-10T22:25:58.233Z,100504.67
2023-04-10T22:29:13.422Z,100499.30
2023-04-10T22:32:20.443Z,100498.15
2023-04-10T22:35:35.573Z,100495.90
2023-04-10T22:39:05.204Z,100491.83
2023-04-10T22:42:35.900Z,100486.55
2023-04-10T22:46:06.578Z,100480.30
2023-04-10T22:49:32.641Z,100479.80
2023-04-10T22:52:46.981Z,100474.02
2023-04-10T22:56:23.984Z,100474.69
2023-04-10T23:03:29.903Z,100461.69
2023-04-10T23:09:52.518Z,100449.25
2023-04-10T23:23:12.501Z,100431.80
2023-04-10T23:29:39.885Z,100420.77
2023-04-10T23:33:16.906Z,100412.73
2023-04-10T23:36:40.110Z,100411.83
2023-04-10T23:40:10.428Z,100402.70
2023-04-10T23:49:59.744Z,100386.69
2023-04-10T23:53:35.729Z,100376.66
